sensor_id;sensor_type;location;lat;lon;timestamp;temperature;humidity
17092;DHT22;8661;45.700;4.880;2023-02-21T00:02:11;6.40;99.90
17092;DHT22;8661;45.700;4.880;2023-02-21T00:04:55;6.40;99.90
17092;DHT22;8661;45.700;4.880;2023-02-21T00:07:40;6.30;99.90
17092;DHT22;8661;45.700;4.880;2023-02-21T00:10:24;6.30;99.90
17092;DHT22;8661;45.700;4.880;2023-02-21T00:13:10;6.30;99.90
17092;DHT22;8661;45.700;4.880;2023-02-21T00:15:55;6.20;99.90
17092;DHT22;8661;45.700;4.880;2023-02-21T00:18:40;6.20;99.90
17092;DHT22;8661;45.700;4.880;2023-02-21T00:21:27;6.20;99.90
17092;DHT22;8661;45.700;4.880;2023-02-21T00:24:13;6.10;99.90
17092;DHT22;8661;45.700;4.880;2023-02-21T00:26:58;6.10;99.90
17092;DHT22;8661;45.700;4.880;2023-02-21T00:29:45;6.00;99.90
17092;DHT22;8661;45.700;4.880;2023-02-21T00:32:29;6.00;99.90
17092;DHT22;8661;45.700;4.880;2023-02-21T00:35:13;6.00;99.90
17092;DHT22;8661;45.700;4.880;2023-02-21T00:37:58;5.90;99.90
17092;DHT22;8661;45.700;4.880;2023-02-21T00:40:42;5.90;99.90
17092;DHT22;8661;45.700;4.880;2023-02-21T00:43:27;5.90;99.90
17092;DHT22;8661;45.700;4.880;2023-02-21T00:46:14;5.90;99.90
17092;DHT22;8661;45.700;4.880;2023-02-21T00:48:58;5.80;99.90
17092;DHT22;8661;45.700;4.880;2023-02-21T00:51:43;5.80;99.90
17092;DHT22;8661;45.700;4.880;2023-02-21T00:54:27;5.70;99.90
17092;DHT22;8661;45.700;4.880;2023-02-21T00:57:12;5.70;99.90
17092;DHT22;8661;45.700;4.880;2023-02-21T00:59:57;5.80;99.90
17092;DHT22;8661;45.700;4.880;2023-02-21T01:02:43;5.70;99.90
17092;DHT22;8661;45.700;4.880;2023-02-21T01:05:27;5.70;99.90
17092;DHT22;8661;45.700;4.880;2023-02-21T01:08:12;5.60;99.90
17092;DHT22;8661;45.700;4.880;2023-02-21T01:10:56;5.60;99.90
17092;DHT22;8661;45.700;4.880;2023-02-21T01:13:40;5.60;99.90
17092;DHT22;8661;45.700;4.880;2023-02-21T01:16:27;5.60;99.90
17092;DHT22;8661;45.700;4.880;2023-02-21T01:19:13;5.60;99.90
17092;DHT22;8661;45.700;4.880;2023-02-21T01:21:58;5.60;99.90
17092;DHT22;8661;45.700;4.880;2023-02-21T01:24:42;5.60;99.90
17092;DHT22;8661;45.700;4.880;2023-02-21T01:27:26;5.60;99.90
17092;DHT22;8661;45.700;4.880;2023-02-21T01:30:11;5.50;99.90
17092;DHT22;8661;45.700;4.880;2023-02-21T01:32:56;5.50;99.90
17092;DHT22;8661;45.700;4.880;2023-02-21T01:35:42;5.40;99.90
17092;DHT22;8661;45.700;4.880;2023-02-21T01:38:26;5.40;99.90
17092;DHT22;8661;45.700;4.880;2023-02-21T01:41:10;5.30;99.90
17092;DHT22;8661;45.700;4.880;2023-02-21T01:44:00;5.30;99.90
17092;DHT22;8661;45.700;4.880;2023-02-21T01:46:45;5.30;99.90
17092;DHT22;8661;45.700;4.880;2023-02-21T01:49:29;5.30;99.90
17092;DHT22;8661;45.700;4.880;2023-02-21T01:52:16;5.30;99.90
17092;DHT22;8661;45.700;4.880;2023-02-21T01:55:02;5.30;99.90
17092;DHT22;8661;45.700;4.880;2023-02-21T01:57:46;5.30;99.90
17092;DHT22;8661;45.700;4.880;2023-02-21T02:00:31;5.40;99.90
17092;DHT22;8661;45.700;4.880;2023-02-21T02:03:18;5.40;99.90
17092;DHT22;8661;45.700;4.880;2023-02-21T02:06:05;5.50;99.90
17092;DHT22;8661;45.700;4.880;2023-02-21T02:08:51;5.40;99.90
17092;DHT22;8661;45.700;4.880;2023-02-21T02:11:54;5.40;99.90
17092;DHT22;8661;45.700;4.880;2023-02-21T02:15:11;5.30;99.90
17092;DHT22;8661;45.700;4.880;2023-02-21T02:17:51;5.30;99.90
17092;DHT22;8661;45.700;4.880;2023-02-21T02:23:45;5.20;99.90
17092;DHT22;8661;45.700;4.880;2023-02-21T02:26:50;5.10;99.90
17092;DHT22;8661;45.700;4.880;2023-02-21T02:29:42;5.00;99.90
17092;DHT22;8661;45.700;4.880;2023-02-21T02:32:42;5.00;99.90
17092;DHT22;8661;45.700;4.880;2023-02-21T02:35:13;4.90;99.90
17092;DHT22;8661;45.700;4.880;2023-02-21T02:37:48;4.90;99.90
17092;DHT22;8661;45.700;4.880;2023-02-21T02:40:21;4.90;99.90
17092;DHT22;8661;45.700;4.880;2023-02-21T02:43:01;5.00;99.90
17092;DHT22;8661;45.700;4.880;2023-02-21T02:45:33;4.90;99.90
17092;DHT22;8661;45.700;4.880;2023-02-21T02:48:05;5.00;99.90
17092;DHT22;8661;45.700;4.880;2023-02-21T02:50:37;5.00;99.90
17092;DHT22;8661;45.700;4.880;2023-02-21T02:53:05;5.00;99.90
17092;DHT22;8661;45.700;4.880;2023-02-21T02:55:38;4.90;99.90
17092;DHT22;8661;45.700;4.880;2023-02-21T02:58:08;4.90;99.90
17092;DHT22;8661;45.700;4.880;2023-02-21T03:00:38;4.80;99.90
17092;DHT22;8661;45.700;4.880;2023-02-21T03:03:18;4.80;99.90
17092;DHT22;8661;45.700;4.880;2023-02-21T03:06:04;4.80;99.90
17092;DHT22;8661;45.700;4.880;2023-02-21T03:08:41;4.80;99.90
17092;DHT22;8661;45.700;4.880;2023-02-21T03:11:16;4.80;99.90
17092;DHT22;8661;45.700;4.880;2023-02-21T03:13:46;4.70;99.90
17092;DHT22;8661;45.700;4.880;2023-02-21T03:16:19;4.70;99.90
17092;DHT22;8661;45.700;4.880;2023-02-21T03:18:51;4.70;99.90
17092;DHT22;8661;45.700;4.880;2023-02-21T03:21:24;4.60;99.90
17092;DHT22;8661;45.700;4.880;2023-02-21T03:23:54;4.60;99.90
17092;DHT22;8661;45.700;4.880;2023-02-21T03:26:24;4.60;99.90
17092;DHT22;8661;45.700;4.880;2023-02-21T03:28:56;4.70;99.90
17092;DHT22;8661;45.700;4.880;2023-02-21T03:31:27;4.60;99.90
17092;DHT22;8661;45.700;4.880;2023-02-21T03:33:55;4.70;99.90
17092;DHT22;8661;45.700;4.880;2023-02-21T03:36:24;4.60;99.90
17092;DHT22;8661;45.700;4.880;2023-02-21T03:38:51;4.60;99.90
17092;DHT22;8661;45.700;4.880;2023-02-21T03:41:18;4.60;99.90
17092;DHT22;8661;45.700;4.880;2023-02-21T03:43:45;4.60;99.90
17092;DHT22;8661;45.700;4.880;2023-02-21T03:46:12;4.50;99.90
17092;DHT22;8661;45.700;4.880;2023-02-21T03:48:39;4.50;99.90
17092;DHT22;8661;45.700;4.880;2023-02-21T03:51:06;4.50;99.90
17092;DHT22;8661;45.700;4.880;2023-02-21T03:53:34;4.50;99.90
17092;DHT22;8661;45.700;4.880;2023-02-21T03:56:01;4.50;99.90
17092;DHT22;8661;45.700;4.880;2023-02-21T03:58:28;4.50;99.90
17092;DHT22;8661;45.700;4.880;2023-02-21T04:00:55;4.40;99.90
17092;DHT22;8661;45.700;4.880;2023-02-21T04:03:22;4.40;99.90
17092;DHT22;8661;45.700;4.880;2023-02-21T04:05:49;4.30;99.90
17092;DHT22;8661;45.700;4.880;2023-02-21T04:08:16;4.30;99.90
17092;DHT22;8661;45.700;4.880;2023-02-21T04:10:45;4.30;99.90
17092;DHT22;8661;45.700;4.880;2023-02-21T04:13:12;4.30;99.90
17092;DHT22;8661;45.700;4.880;2023-02-21T04:15:39;4.30;99.90
17092;DHT22;8661;45.700;4.880;2023-02-21T04:18:06;4.30;99.90
17092;DHT22;8661;45.700;4.880;2023-02-21T04:20:33;4.40;99.90
17092;DHT22;8661;45.700;4.880;2023-02-21T04:23:00;4.30;99.90
17092;DHT22;8661;45.700;4.880;2023-02-21T04:25:27;4.30;99.90
17092;DHT22;8661;45.700;4.880;2023-02-21T04:27:55;4.30;99.90
17092;DHT22;8661;45.700;4.880;2023-02-21T04:30:22;4.30;99.90
17092;DHT22;8661;45.700;4.880;2023-02-21T04:32:49;4.30;99.90
17092;DHT22;8661;45.700;4.880;2023-02-21T04:35:16;4.30;99.90
17092;DHT22;8661;45.700;4.880;2023-02-21T04:37:44;4.20;99.90
17092;DHT22;8661;45.700;4.880;2023-02-21T04:40:11;4.20;99.90
17092;DHT22;8661;45.700;4.880;2023-02-21T04:42:38;4.10;99.90
17092;DHT22;8661;45.700;4.880;2023-02-21T04:45:07;4.10;99.90
17092;DHT22;8661;45.700;4.880;2023-02-21T04:47:34;4.10;99.90
17092;DHT22;8661;45.700;4.880;2023-02-21T04:50:01;4.00;99.90
17092;DHT22;8661;45.700;4.880;2023-02-21T04:52:28;4.00;99.90
17092;DHT22;8661;45.700;4.880;2023-02-21T04:54:55;4.00;99.90
17092;DHT22;8661;45.700;4.880;2023-02-21T04:57:22;4.00;99.90
17092;DHT22;8661;45.700;4.880;2023-02-21T04:59:55;4.00;99.90
17092;DHT22;8661;45.700;4.880;2023-02-21T05:02:24;3.90;99.90
17092;DHT22;8661;45.700;4.880;2023-02-21T05:04:51;3.90;99.90
17092;DHT22;8661;45.700;4.880;2023-02-21T05:07:18;3.90;99.90
17092;DHT22;8661;45.700;4.880;2023-02-21T05:09:45;3.90;99.90
17092;DHT22;8661;45.700;4.880;2023-02-21T05:12:12;3.90;99.90
17092;DHT22;8661;45.700;4.880;2023-02-21T05:14:40;3.90;99.90
17092;DHT22;8661;45.700;4.880;2023-02-21T05:17:08;3.90;99.90
17092;DHT22;8661;45.700;4.880;2023-02-21T05:19:36;3.90;99.90
17092;DHT22;8661;45.700;4.880;2023-02-21T05:22:03;3.90;99.90
17092;DHT22;8661;45.700;4.880;2023-02-21T05:24:31;3.90;99.90
17092;DHT22;8661;45.700;4.880;2023-02-21T05:26:59;4.00;99.90
17092;DHT22;8661;45.700;4.880;2023-02-21T05:29:26;4.00;99.90
17092;DHT22;8661;45.700;4.880;2023-02-21T05:31:54;4.00;99.90
17092;DHT22;8661;45.700;4.880;2023-02-21T05:34:21;4.00;99.90
17092;DHT22;8661;45.700;4.880;2023-02-21T05:36:49;4.10;99.90
17092;DHT22;8661;45.700;4.880;2023-02-21T05:39:16;4.20;99.90
17092;DHT22;8661;45.700;4.880;2023-02-21T05:41:47;4.30;99.90
17092;DHT22;8661;45.700;4.880;2023-02-21T05:44:14;4.30;99.90
17092;DHT22;8661;45.700;4.880;2023-02-21T05:46:41;4.40;99.90
17092;DHT22;8661;45.700;4.880;2023-02-21T05:49:08;4.40;99.90
17092;DHT22;8661;45.700;4.880;2023-02-21T05:51:37;4.60;99.90
17092;DHT22;8661;45.700;4.880;2023-02-21T05:54:07;4.70;99.90
17092;DHT22;8661;45.700;4.880;2023-02-21T05:56:37;5.00;99.90
17092;DHT22;8661;45.700;4.880;2023-02-21T05:59:05;5.20;99.90
17092;DHT22;8661;45.700;4.880;2023-02-21T06:01:32;5.40;99.90
17092;DHT22;8661;45.700;4.880;2023-02-21T06:03:58;5.50;99.90
17092;DHT22;8661;45.700;4.880;2023-02-21T06:06:25;5.60;99.90
17092;DHT22;8661;45.700;4.880;2023-02-21T06:08:52;5.80;99.90
17092;DHT22;8661;45.700;4.880;2023-02-21T06:11:24;5.80;99.90
17092;DHT22;8661;45.700;4.880;2023-02-21T06:13:54;5.90;99.90
17092;DHT22;8661;45.700;4.880;2023-02-21T06:16:22;6.00;99.90
17092;DHT22;8661;45.700;4.880;2023-02-21T06:18:49;6.10;99.90
17092;DHT22;8661;45.700;4.880;2023-02-21T06:21:16;6.20;99.90
17092;DHT22;8661;45.700;4.880;2023-02-21T06:23:44;6.20;99.90
17092;DHT22;8661;45.700;4.880;2023-02-21T06:26:11;6.20;99.90
17092;DHT22;8661;45.700;4.880;2023-02-21T06:28:39;6.20;99.90
17092;DHT22;8661;45.700;4.880;2023-02-21T06:31:07;6.20;99.90
17092;DHT22;8661;45.700;4.880;2023-02-21T06:33:34;6.30;99.90
17092;DHT22;8661;45.700;4.880;2023-02-21T06:36:04;6.30;99.90
17092;DHT22;8661;45.700;4.880;2023-02-21T06:38:31;6.30;99.90
17092;DHT22;8661;45.700;4.880;2023-02-21T06:40:59;6.30;99.90
17092;DHT22;8661;45.700;4.880;2023-02-21T06:43:26;6.30;99.90
17092;DHT22;8661;45.700;4.880;2023-02-21T06:45:54;6.40;99.90
17092;DHT22;8661;45.700;4.880;2023-02-21T06:48:21;6.40;99.90
17092;DHT22;8661;45.700;4.880;2023-02-21T06:50:48;6.50;99.90
17092;DHT22;8661;45.700;4.880;2023-02-21T06:53:15;6.60;99.90
17092;DHT22;8661;45.700;4.880;2023-02-21T06:55:42;6.60;99.90
17092;DHT22;8661;45.700;4.880;2023-02-21T06:58:08;6.70;99.90
17092;DHT22;8661;45.700;4.880;2023-02-21T07:00:36;6.80;99.90
17092;DHT22;8661;45.700;4.880;2023-02-21T07:03:04;6.80;99.90
17092;DHT22;8661;45.700;4.880;2023-02-21T07:05:31;6.70;99.90
17092;DHT22;8661;45.700;4.880;2023-02-21T07:08:00;6.70;99.90
17092;DHT22;8661;45.700;4.880;2023-02-21T07:10:27;6.80;99.90
17092;DHT22;8661;45.700;4.880;2023-02-21T07:12:54;6.80;99.90
17092;DHT22;8661;45.700;4.880;2023-02-21T07:15:22;6.80;99.90
17092;DHT22;8661;45.700;4.880;2023-02-21T07:17:49;6.80;99.90
17092;DHT22;8661;45.700;4.880;2023-02-21T07:20:17;6.90;99.90
17092;DHT22;8661;45.700;4.880;2023-02-21T07:22:47;7.00;99.90
17092;DHT22;8661;45.700;4.880;2023-02-21T07:25:16;7.00;99.90
17092;DHT22;8661;45.700;4.880;2023-02-21T07:27:43;7.10;99.90
17092;DHT22;8661;45.700;4.880;2023-02-21T07:30:10;7.10;99.90
17092;DHT22;8661;45.700;4.880;2023-02-21T07:32:37;7.10;99.90
17092;DHT22;8661;45.700;4.880;2023-02-21T07:35:05;7.20;99.90
17092;DHT22;8661;45.700;4.880;2023-02-21T07:37:33;7.30;99.90
17092;DHT22;8661;45.700;4.880;2023-02-21T07:40:00;7.30;99.90
17092;DHT22;8661;45.700;4.880;2023-02-21T07:42:28;7.40;99.90
17092;DHT22;8661;45.700;4.880;2023-02-21T07:44:56;7.40;99.90
17092;DHT22;8661;45.700;4.880;2023-02-21T07:47:23;7.50;99.90
17092;DHT22;8661;45.700;4.880;2023-02-21T07:49:51;7.60;99.90
17092;DHT22;8661;45.700;4.880;2023-02-21T07:52:18;7.60;99.90
17092;DHT22;8661;45.700;4.880;2023-02-21T07:54:47;7.70;99.90
17092;DHT22;8661;45.700;4.880;2023-02-21T07:57:14;7.80;99.90
17092;DHT22;8661;45.700;4.880;2023-02-21T07:59:41;7.90;99.90
17092;DHT22;8661;45.700;4.880;2023-02-21T08:02:09;8.00;99.90
17092;DHT22;8661;45.700;4.880;2023-02-21T08:04:36;8.20;99.90
17092;DHT22;8661;45.700;4.880;2023-02-21T08:07:03;8.70;99.90
17092;DHT22;8661;45.700;4.880;2023-02-21T08:09:31;8.80;99.90
17092;DHT22;8661;45.700;4.880;2023-02-21T08:12:00;9.10;99.90
17092;DHT22;8661;45.700;4.880;2023-02-21T08:14:27;9.20;99.90
17092;DHT22;8661;45.700;4.880;2023-02-21T08:16:53;9.00;99.90
17092;DHT22;8661;45.700;4.880;2023-02-21T08:19:20;9.00;99.90
17092;DHT22;8661;45.700;4.880;2023-02-21T08:21:48;9.00;99.90
17092;DHT22;8661;45.700;4.880;2023-02-21T08:24:16;9.20;99.90
17092;DHT22;8661;45.700;4.880;2023-02-21T08:26:43;9.40;99.90
17092;DHT22;8661;45.700;4.880;2023-02-21T08:29:13;9.40;99.90
17092;DHT22;8661;45.700;4.880;2023-02-21T08:31:41;9.50;99.90
17092;DHT22;8661;45.700;4.880;2023-02-21T08:34:09;9.50;99.90
17092;DHT22;8661;45.700;4.880;2023-02-21T08:36:38;9.50;99.90
17092;DHT22;8661;45.700;4.880;2023-02-21T08:39:06;9.60;99.90
17092;DHT22;8661;45.700;4.880;2023-02-21T08:41:37;9.80;99.90
17092;DHT22;8661;45.700;4.880;2023-02-21T08:44:05;9.90;99.90
17092;DHT22;8661;45.700;4.880;2023-02-21T08:46:33;9.90;99.90
17092;DHT22;8661;45.700;4.880;2023-02-21T08:49:01;9.90;99.90
17092;DHT22;8661;45.700;4.880;2023-02-21T08:51:30;10.00;99.90
17092;DHT22;8661;45.700;4.880;2023-02-21T08:53:57;10.10;99.90
17092;DHT22;8661;45.700;4.880;2023-02-21T08:56:25;10.30;99.90
17092;DHT22;8661;45.700;4.880;2023-02-21T08:58:53;10.30;99.90
17092;DHT22;8661;45.700;4.880;2023-02-21T09:01:21;10.40;99.90
17092;DHT22;8661;45.700;4.880;2023-02-21T09:03:50;10.40;99.90
17092;DHT22;8661;45.700;4.880;2023-02-21T09:06:17;10.40;99.90
17092;DHT22;8661;45.700;4.880;2023-02-21T09:08:44;10.50;99.90
17092;DHT22;8661;45.700;4.880;2023-02-21T09:11:11;10.60;99.90
17092;DHT22;8661;45.700;4.880;2023-02-21T09:13:37;10.60;99.90
17092;DHT22;8661;45.700;4.880;2023-02-21T09:16:05;10.70;99.90
17092;DHT22;8661;45.700;4.880;2023-02-21T09:18:32;10.70;99.90
17092;DHT22;8661;45.700;4.880;2023-02-21T09:21:00;10.80;99.90
17092;DHT22;8661;45.700;4.880;2023-02-21T09:23:29;10.90;99.90
17092;DHT22;8661;45.700;4.880;2023-02-21T09:25:56;11.00;99.90
17092;DHT22;8661;45.700;4.880;2023-02-21T09:28:23;11.00;99.90
17092;DHT22;8661;45.700;4.880;2023-02-21T09:30:50;11.10;99.90
17092;DHT22;8661;45.700;4.880;2023-02-21T09:33:18;11.20;99.90
17092;DHT22;8661;45.700;4.880;2023-02-21T09:35:45;11.20;99.90
17092;DHT22;8661;45.700;4.880;2023-02-21T09:38:13;11.30;99.90
17092;DHT22;8661;45.700;4.880;2023-02-21T09:40:42;11.30;99.90
17092;DHT22;8661;45.700;4.880;2023-02-21T09:43:15;11.20;99.90
17092;DHT22;8661;45.700;4.880;2023-02-21T09:45:43;11.20;99.90
17092;DHT22;8661;45.700;4.880;2023-02-21T09:48:13;11.10;99.90
17092;DHT22;8661;45.700;4.880;2023-02-21T09:50:43;11.20;99.90
17092;DHT22;8661;45.700;4.880;2023-02-21T09:53:18;11.40;99.90
17092;DHT22;8661;45.700;4.880;2023-02-21T09:55:48;11.40;99.90
17092;DHT22;8661;45.700;4.880;2023-02-21T09:58:18;11.40;99.90
17092;DHT22;8661;45.700;4.880;2023-02-21T10:00:46;11.30;99.90
17092;DHT22;8661;45.700;4.880;2023-02-21T10:03:29;11.40;99.90
17092;DHT22;8661;45.700;4.880;2023-02-21T10:06:06;11.40;99.90
17092;DHT22;8661;45.700;4.880;2023-02-21T10:08:43;11.40;99.90
17092;DHT22;8661;45.700;4.880;2023-02-21T10:11:24;11.50;99.90
17092;DHT22;8661;45.700;4.880;2023-02-21T10:14:00;11.50;99.90
17092;DHT22;8661;45.700;4.880;2023-02-21T10:16:32;11.50;99.90
17092;DHT22;8661;45.700;4.880;2023-02-21T10:19:06;11.50;99.90
17092;DHT22;8661;45.700;4.880;2023-02-21T10:21:40;11.50;99.90
17092;DHT22;8661;45.700;4.880;2023-02-21T10:24:13;11.50;99.90
17092;DHT22;8661;45.700;4.880;2023-02-21T10:26:44;11.50;99.90
17092;DHT22;8661;45.700;4.880;2023-02-21T10:29:20;11.40;99.90
17092;DHT22;8661;45.700;4.880;2023-02-21T10:31:49;11.50;99.90
17092;DHT22;8661;45.700;4.880;2023-02-21T10:34:22;11.50;99.90
17092;DHT22;8661;45.700;4.880;2023-02-21T10:36:51;11.50;99.90
17092;DHT22;8661;45.700;4.880;2023-02-21T10:39:21;11.60;99.90
17092;DHT22;8661;45.700;4.880;2023-02-21T10:41:50;11.60;99.90
17092;DHT22;8661;45.700;4.880;2023-02-21T10:44:20;11.80;99.90
17092;DHT22;8661;45.700;4.880;2023-02-21T10:46:53;12.00;99.90
17092;DHT22;8661;45.700;4.880;2023-02-21T10:49:24;12.10;99.90
17092;DHT22;8661;45.700;4.880;2023-02-21T10:52:05;12.00;99.90
17092;DHT22;8661;45.700;4.880;2023-02-21T10:54:36;12.10;99.90
17092;DHT22;8661;45.700;4.880;2023-02-21T10:57:06;12.10;99.90
17092;DHT22;8661;45.700;4.880;2023-02-21T10:59:35;12.20;99.90
17092;DHT22;8661;45.700;4.880;2023-02-21T11:02:25;12.30;99.90
17092;DHT22;8661;45.700;4.880;2023-02-21T11:04:54;12.40;99.90
17092;DHT22;8661;45.700;4.880;2023-02-21T11:07:22;12.50;99.90
17092;DHT22;8661;45.700;4.880;2023-02-21T11:09:51;12.60;99.90
17092;DHT22;8661;45.700;4.880;2023-02-21T11:12:23;12.70;99.90
17092;DHT22;8661;45.700;4.880;2023-02-21T11:15:15;12.70;99.90
17092;DHT22;8661;45.700;4.880;2023-02-21T11:17:43;12.90;99.90
17092;DHT22;8661;45.700;4.880;2023-02-21T11:20:17;13.10;99.90
17092;DHT22;8661;45.700;4.880;2023-02-21T11:22:46;13.10;99.90
17092;DHT22;8661;45.700;4.880;2023-02-21T11:25:22;13.30;99.90
17092;DHT22;8661;45.700;4.880;2023-02-21T11:28:05;13.50;99.90
17092;DHT22;8661;45.700;4.880;2023-02-21T11:30:34;13.80;99.90
17092;DHT22;8661;45.700;4.880;2023-02-21T11:33:03;14.40;99.90
17092;DHT22;8661;45.700;4.880;2023-02-21T11:35:33;15.10;99.90
17092;DHT22;8661;45.700;4.880;2023-02-21T11:38:02;16.50;99.90
17092;DHT22;8661;45.700;4.880;2023-02-21T11:40:40;16.80;99.90
17092;DHT22;8661;45.700;4.880;2023-02-21T11:43:20;16.90;99.90
17092;DHT22;8661;45.700;4.880;2023-02-21T11:46:03;17.60;99.90
17092;DHT22;8661;45.700;4.880;2023-02-21T11:48:33;18.20;99.90
17092;DHT22;8661;45.700;4.880;2023-02-21T11:51:05;18.70;99.90
17092;DHT22;8661;45.700;4.880;2023-02-21T11:53:38;18.70;99.10
17092;DHT22;8661;45.700;4.880;2023-02-21T11:56:14;19.10;97.90
17092;DHT22;8661;45.700;4.880;2023-02-21T11:58:48;19.70;96.10
17092;DHT22;8661;45.700;4.880;2023-02-21T12:01:25;19.50;95.00
17092;DHT22;8661;45.700;4.880;2023-02-21T12:04:09;19.60;94.80
17092;DHT22;8661;45.700;4.880;2023-02-21T12:06:44;20.00;94.10
17092;DHT22;8661;45.700;4.880;2023-02-21T12:09:17;20.50;92.60
17092;DHT22;8661;45.700;4.880;2023-02-21T12:11:57;20.70;91.90
17092;DHT22;8661;45.700;4.880;2023-02-21T12:14:54;20.10;91.70
17092;DHT22;8661;45.700;4.880;2023-02-21T12:17:42;19.70;92.30
17092;DHT22;8661;45.700;4.880;2023-02-21T12:20:25;20.10;91.60
17092;DHT22;8661;45.700;4.880;2023-02-21T12:23:13;20.30;91.30
17092;DHT22;8661;45.700;4.880;2023-02-21T12:25:54;20.20;91.80
17092;DHT22;8661;45.700;4.880;2023-02-21T12:28:32;20.50;91.10
17092;DHT22;8661;45.700;4.880;2023-02-21T12:31:29;21.00;89.90
17092;DHT22;8661;45.700;4.880;2023-02-21T12:34:12;21.10;89.40
17092;DHT22;8661;45.700;4.880;2023-02-21T12:39:56;21.90;85.90
17092;DHT22;8661;45.700;4.880;2023-02-21T12:42:35;22.10;85.40
17092;DHT22;8661;45.700;4.880;2023-02-21T12:45:18;22.60;83.60
17092;DHT22;8661;45.700;4.880;2023-02-21T12:47:54;22.90;81.80
17092;DHT22;8661;45.700;4.880;2023-02-21T12:50:27;22.60;82.90
17092;DHT22;8661;45.700;4.880;2023-02-21T12:52:58;22.60;82.20
17092;DHT22;8661;45.700;4.880;2023-02-21T12:55:31;22.80;81.50
17092;DHT22;8661;45.700;4.880;2023-02-21T12:58:08;23.00;80.70
17092;DHT22;8661;45.700;4.880;2023-02-21T13:00:40;23.50;79.20
17092;DHT22;8661;45.700;4.880;2023-02-21T13:03:18;24.00;77.90
17092;DHT22;8661;45.700;4.880;2023-02-21T13:05:50;24.20;76.40
17092;DHT22;8661;45.700;4.880;2023-02-21T13:08:23;23.60;76.90
17092;DHT22;8661;45.700;4.880;2023-02-21T13:10:55;23.60;77.10
17092;DHT22;8661;45.700;4.880;2023-02-21T13:13:27;23.80;77.10
17092;DHT22;8661;45.700;4.880;2023-02-21T13:16:01;23.80;76.40
17092;DHT22;8661;45.700;4.880;2023-02-21T13:18:31;23.30;77.50
17092;DHT22;8661;45.700;4.880;2023-02-21T13:21:10;23.70;76.10
17092;DHT22;8661;45.700;4.880;2023-02-21T13:23:43;23.00;76.50
17092;DHT22;8661;45.700;4.880;2023-02-21T13:26:31;22.80;77.60
17092;DHT22;8661;45.700;4.880;2023-02-21T13:29:02;22.80;76.90
17092;DHT22;8661;45.700;4.880;2023-02-21T13:31:34;23.10;77.50
17092;DHT22;8661;45.700;4.880;2023-02-21T13:34:05;23.20;76.70
17092;DHT22;8661;45.700;4.880;2023-02-21T13:36:42;23.20;76.10
17092;DHT22;8661;45.700;4.880;2023-02-21T13:39:12;22.90;76.70
17092;DHT22;8661;45.700;4.880;2023-02-21T13:41:43;22.80;77.70
17092;DHT22;8661;45.700;4.880;2023-02-21T13:44:15;22.80;77.00
17092;DHT22;8661;45.700;4.880;2023-02-21T13:47:06;22.70;78.00
17092;DHT22;8661;45.700;4.880;2023-02-21T13:49:46;22.80;76.70
17092;DHT22;8661;45.700;4.880;2023-02-21T13:55:25;22.70;76.70
17092;DHT22;8661;45.700;4.880;2023-02-21T13:58:23;22.90;76.30
17092;DHT22;8661;45.700;4.880;2023-02-21T14:00:55;22.80;76.30
17092;DHT22;8661;45.700;4.880;2023-02-21T14:03:32;22.40;77.80
17092;DHT22;8661;45.700;4.880;2023-02-21T14:06:34;22.20;78.10
17092;DHT22;8661;45.700;4.880;2023-02-21T14:09:08;22.00;78.30
17092;DHT22;8661;45.700;4.880;2023-02-21T14:11:38;21.60;79.50
17092;DHT22;8661;45.700;4.880;2023-02-21T14:14:20;21.20;80.70
17092;DHT22;8661;45.700;4.880;2023-02-21T14:16:51;21.00;81.30
17092;DHT22;8661;45.700;4.880;2023-02-21T14:19:23;20.80;81.70
17092;DHT22;8661;45.700;4.880;2023-02-21T14:21:58;20.40;82.70
17092;DHT22;8661;45.700;4.880;2023-02-21T14:24:30;19.80;84.20
17092;DHT22;8661;45.700;4.880;2023-02-21T14:27:02;19.60;85.10
17092;DHT22;8661;45.700;4.880;2023-02-21T14:29:38;19.20;86.30
17092;DHT22;8661;45.700;4.880;2023-02-21T14:32:26;18.70;88.10
17092;DHT22;8661;45.700;4.880;2023-02-21T14:34:58;18.50;89.10
17092;DHT22;8661;45.700;4.880;2023-02-21T14:37:29;18.20;90.00
17092;DHT22;8661;45.700;4.880;2023-02-21T14:40:17;18.10;90.20
17092;DHT22;8661;45.700;4.880;2023-02-21T14:42:56;17.70;90.70
17092;DHT22;8661;45.700;4.880;2023-02-21T14:45:39;17.50;91.10
17092;DHT22;8661;45.700;4.880;2023-02-21T14:48:19;17.30;91.50
17092;DHT22;8661;45.700;4.880;2023-02-21T14:51:14;17.20;91.80
17092;DHT22;8661;45.700;4.880;2023-02-21T14:54:04;16.90;92.30
17092;DHT22;8661;45.700;4.880;2023-02-21T14:56:46;16.90;92.60
17092;DHT22;8661;45.700;4.880;2023-02-21T14:59:41;16.90;92.70
17092;DHT22;8661;45.700;4.880;2023-02-21T15:02:17;17.00;92.60
17092;DHT22;8661;45.700;4.880;2023-02-21T15:04:54;17.10;92.30
17092;DHT22;8661;45.700;4.880;2023-02-21T15:07:30;17.20;92.30
17092;DHT22;8661;45.700;4.880;2023-02-21T15:10:10;17.40;92.20
17092;DHT22;8661;45.700;4.880;2023-02-21T15:12:41;17.50;92.00
17092;DHT22;8661;45.700;4.880;2023-02-21T15:15:14;17.50;91.80
17092;DHT22;8661;45.700;4.880;2023-02-21T15:17:43;17.50;91.90
17092;DHT22;8661;45.700;4.880;2023-02-21T15:20:14;17.60;91.90
17092;DHT22;8661;45.700;4.880;2023-02-21T15:22:43;17.70;91.70
17092;DHT22;8661;45.700;4.880;2023-02-21T15:25:18;17.60;91.80
17092;DHT22;8661;45.700;4.880;2023-02-21T15:28:17;17.70;91.70
17092;DHT22;8661;45.700;4.880;2023-02-21T15:30:56;17.60;91.70
17092;DHT22;8661;45.700;4.880;2023-02-21T15:33:23;17.50;92.00
17092;DHT22;8661;45.700;4.880;2023-02-21T15:35:56;17.60;92.00
17092;DHT22;8661;45.700;4.880;2023-02-21T15:38:30;17.50;92.00
17092;DHT22;8661;45.700;4.880;2023-02-21T15:41:01;17.40;92.10
17092;DHT22;8661;45.700;4.880;2023-02-21T15:43:33;17.50;92.00
17092;DHT22;8661;45.700;4.880;2023-02-21T15:46:03;17.40;92.10
17092;DHT22;8661;45.700;4.880;2023-02-21T15:48:33;17.40;92.30
17092;DHT22;8661;45.700;4.880;2023-02-21T15:51:02;17.30;92.30
17092;DHT22;8661;45.700;4.880;2023-02-21T15:53:33;17.30;92.40
17092;DHT22;8661;45.700;4.880;2023-02-21T15:56:21;17.20;92.70
17092;DHT22;8661;45.700;4.880;2023-02-21T15:59:11;17.10;92.70
17092;DHT22;8661;45.700;4.880;2023-02-21T16:01:39;16.90;93.10
17092;DHT22;8661;45.700;4.880;2023-02-21T16:04:17;16.60;93.40
17092;DHT22;8661;45.700;4.880;2023-02-21T16:06:48;16.40;93.70
17092;DHT22;8661;45.700;4.880;2023-02-21T16:09:24;16.30;94.10
17092;DHT22;8661;45.700;4.880;2023-02-21T16:11:54;16.20;94.70
17092;DHT22;8661;45.700;4.880;2023-02-21T16:14:25;16.10;94.50
17092;DHT22;8661;45.700;4.880;2023-02-21T16:17:04;16.00;94.80
17092;DHT22;8661;45.700;4.880;2023-02-21T16:19:35;16.00;94.90
17092;DHT22;8661;45.700;4.880;2023-02-21T16:22:20;16.00;95.00
17092;DHT22;8661;45.700;4.880;2023-02-21T16:24:50;15.90;95.30
17092;DHT22;8661;45.700;4.880;2023-02-21T16:27:29;15.70;95.40
17092;DHT22;8661;45.700;4.880;2023-02-21T16:29:56;15.60;95.80
17092;DHT22;8661;45.700;4.880;2023-02-21T16:32:23;15.50;96.00
17092;DHT22;8661;45.700;4.880;2023-02-21T16:34:51;15.30;96.40
17092;DHT22;8661;45.700;4.880;2023-02-21T16:37:21;15.10;96.70
17092;DHT22;8661;45.700;4.880;2023-02-21T16:39:49;15.00;97.00
17092;DHT22;8661;45.700;4.880;2023-02-21T16:42:17;14.90;97.20
17092;DHT22;8661;45.700;4.880;2023-02-21T16:44:44;14.80;97.40
17092;DHT22;8661;45.700;4.880;2023-02-21T16:47:13;14.70;97.50